WetterOnline ( http://www.wetteronline.de )

Wetter aktuell PLZ Bereich 87527

Aktuelles Wetter: Oberstdorf (812m)

6-stündlich | Neueste Meldungen
Ortszeit Temperatur Wetter
So, 24.03. 7:00 -1.9° C fast wolkenlos
So, 24.03. 1:00 0.1° C wolkenlos
Sa, 23.03. 19:00 7.9° C fast wolkenlos
Sa, 23.03. 13:00 15.1° C wolkenlos
Sa, 23.03. 7:00 -2.3° C wolkenlos
Sa, 23.03. 1:00 -0.2° C wolkenlos
Fr, 22.03. 19:00 6.5° C wolkig
Fr, 22.03. 13:00 13.8° C leicht bewölkt
Ortszeit Temperatur Wetter
So, 24.03. 11:30 13.1° C wolkenlos
So, 24.03. 11:10 11.9° C wolkenlos
So, 24.03. 11:00 11.9° C fast wolkenlos
So, 24.03. 10:50 11.9° C fast wolkenlos
So, 24.03. 10:40 12.6° C fast wolkenlos
So, 24.03. 10:30 10.6° C wolkenlos
So, 24.03. 10:00 8.7° C wolkenlos
So, 24.03. 9:30 7.4° C wolkenlos
So, 24.03. 9:00 6.5° C wolkenlos
So, 24.03. 8:30 3.6° C wolkenlos
So, 24.03. 8:00 1.0° C wolkenlos
Ortszeit Relative Feuchte Sichtweite
So, 24.03. 7:00 92% 9 km
So, 24.03. 1:00 87% 10 km
Sa, 23.03. 19:00 58% 27 km
Sa, 23.03. 13:00 29% 70 km
Sa, 23.03. 7:00 85% 70 km
Sa, 23.03. 1:00 81% 35 km
Fr, 22.03. 19:00 63% 45 km
Fr, 22.03. 13:00 28% 65 km
Ortszeit Relative Feuchte Sichtweite
So, 24.03. 11:30 41% 14 km
So, 24.03. 11:10 45% -
So, 24.03. 11:00 43% 26 km
So, 24.03. 10:50 43% -
So, 24.03. 10:40 42% -
So, 24.03. 10:30 45% 40 km
So, 24.03. 10:00 49% 35 km
So, 24.03. 9:30 55% 26 km
So, 24.03. 9:00 64% 50 km
So, 24.03. 8:30 72% 27 km
So, 24.03. 8:00 77% 21 km
Ortszeit Niederschlagsmenge Niederschlagsart
So, 24.03. 7:00 0.0 l/m2 in 12 Std. -
So, 24.03. 1:00 0.0 l/m2 in 6 Std. -
Sa, 23.03. 19:00 0.0 l/m2 in 12 Std. -
Sa, 23.03. 13:00 0.0 l/m2 in 6 Std. -
Sa, 23.03. 7:00 0.0 l/m2 in 12 Std. -
Sa, 23.03. 1:00 0.0 l/m2 in 6 Std. -
Fr, 22.03. 19:00 0.0 l/m2 in 12 Std. -
Fr, 22.03. 13:00 0.0 l/m2 in 6 Std. -
Ortszeit Niederschlagsmenge Niederschlagsart
So, 24.03. 11:30 0.0 l/m2 in 1 Std. -
So, 24.03. 11:10 keine Meldung -
So, 24.03. 11:00 0.0 l/m2 in 1 Std. -
So, 24.03. 10:50 keine Meldung -
So, 24.03. 10:40 keine Meldung -
So, 24.03. 10:30 0.0 l/m2 in 1 Std. -
So, 24.03. 10:00 0.0 l/m2 in 1 Std. -
So, 24.03. 9:30 0.0 l/m2 in 1 Std. -
So, 24.03. 9:00 0.0 l/m2 in 1 Std. -
So, 24.03. 8:30 0.0 l/m2 in 1 Std. -
So, 24.03. 8:00 0.0 l/m2 in 1 Std. -
Ortszeit Stärke Spitze Richtung
km/h Bft. km/h Grad Sektor
So, 24.03. 7:00 4 1 11 190° S
So, 24.03. 1:00 7 2 18 150° SO
Sa, 23.03. 19:00 14 3 22 170° S
Sa, 23.03. 13:00 4 1 7 200° S
Sa, 23.03. 7:00 4 1 11 150° SO
Sa, 23.03. 1:00 7 2 18 160° S
Fr, 22.03. 19:00 17 3 22 170° S
Fr, 22.03. 13:00 4 1 11 220° SW
Ortszeit Stärke Spitze Richtung
km/h Bft. km/h Grad Sektor
So, 24.03. 11:30 6 1 6 230° SW
So, 24.03. 11:10 4 1 - 240° SW
So, 24.03. 11:00 4 1 4 210° SW
So, 24.03. 10:50 4 1 - 210° SW
So, 24.03. 10:40 2 1 - 200° S
So, 24.03. 10:30 4 1 4 200° S
So, 24.03. 10:00 4 1 4 10° N
So, 24.03. 9:30 4 1 4 190° S
So, 24.03. 9:00 2 1 13 100° O
So, 24.03. 8:30 7 2 11 160° S
So, 24.03. 8:00 6 1 11 100° O
Ortszeit Untergrenze Bedeckung Gattung
total tief tief mittel hoch
So, 24.03. 7:00 9000 m 1/8 0/8 - - -
So, 24.03. 1:00 - 0/8 0/8 - - -
Sa, 23.03. 19:00 10500 m 1/8 0/8 - - -
Sa, 23.03. 13:00 - 0/8 0/8 - - -
Sa, 23.03. 7:00 - 0/8 0/8 - - -
Sa, 23.03. 1:00 - 0/8 0/8 - - -
Fr, 22.03. 19:00 7800 m 8/8 0/8 - - -
Fr, 22.03. 13:00 9000 m 6/8 0/8 - - -
Ortszeit Bedeckungsgrad in Achtel und Wolkenuntergrenze
So, 24.03. 11:30 keine Wolken
So, 24.03. 11:10 keine Wolken
So, 24.03. 11:00 1(10500m)
So, 24.03. 10:50 1(10500m)
So, 24.03. 10:40 1(10500m)
So, 24.03. 10:30 keine Wolken
So, 24.03. 10:00 keine Wolken
So, 24.03. 9:30 keine Wolken
So, 24.03. 9:00 keine Wolken
So, 24.03. 8:30 keine Wolken
So, 24.03. 8:00 keine Wolken
Ortszeit Stationsdruck (hPa) Tendenz (hPa in 3 Std.)
So, 24.03. 7:00 930 0,0
So, 24.03. 1:00 932 - 1,5
Sa, 23.03. 19:00 932 + 0,7
Sa, 23.03. 13:00 933 - 1,2
Sa, 23.03. 7:00 934 + 0,3
Sa, 23.03. 1:00 934 - 0,4
Fr, 22.03. 19:00 935 + 0,7
Fr, 22.03. 13:00 934 - 1,0
Ortszeit Stationsdruck (hPa) Tendenz (hPa in 3 Std.)
So, 24.03. 11:30 929 - 1,0
So, 24.03. 11:10 929 keine Meldung
So, 24.03. 11:00 929 - 1,0
So, 24.03. 10:50 929 keine Meldung
So, 24.03. 10:40 929 keine Meldung
So, 24.03. 10:30 929 - 1,2
So, 24.03. 10:00 930 - 0,9
So, 24.03. 9:30 930 - 0,9
So, 24.03. 9:00 930 - 0,6
So, 24.03. 8:30 930 - 0,4
So, 24.03. 8:00 930 - 0,1
Ortszeit Schneehöhe (cm)
So, 24.03. 7:00 0
So, 24.03. 1:00 0
Sa, 23.03. 19:00 0
Sa, 23.03. 13:00 -
Sa, 23.03. 7:00 3
Sa, 23.03. 1:00 2
Fr, 22.03. 19:00 2
Fr, 22.03. 13:00 6
Ortszeit Schneehöhe (cm)
So, 24.03. 11:30 -
So, 24.03. 11:10 -
So, 24.03. 11:00 -
So, 24.03. 10:50 -
So, 24.03. 10:40 -
So, 24.03. 10:30 0
So, 24.03. 10:00 0
So, 24.03. 9:30 0
So, 24.03. 9:00 0
So, 24.03. 8:30 0
So, 24.03. 8:00 0
Link zu dieser Seite / Seite empfehlen

Das Wetter in ...